Aérodrome :
LOGIN :

S'inscrire | Disclaimer

   EN    FR    IT 

 










Légende :    VFR   VFR Marginal   IFR   IFR Intensif   IFR Très Intensif
Visi : 
Plafond : 
>= 8 km
>= 3000ft
5 à 8 km
1000 à 3000 ft
1500m à 5 km
500 à 1000 ft
800 à 1500m
200 à 500 ft
< 800m
< 200 ft
Symboles :   Orages  Brouillard  Fortes neiges  Fortes précipitations  Vent > 20 kt
SIGMETs :   Divers  Orages  Givrage  Turbulence  Onde Orograph.  Cendres Volcan.






- Altitude de l'aérodrome : 915 ft
- Code IATA : LUG


LSZA - Lugano

DERNIER METAR :
  • 202120Z AUTO VRB01KT 2600 BR BKN027 03/01 Q1018

METARs EXPIRÉS :
  • 202050Z AUTO 20003KT 2500 BR BKN029 03/01 Q1019
  • 202020Z AUTO 20003KT 2700 BR SCT031 BKN041 04/01 Q1019
  • 201950Z AUTO VRB02KT 2900 BR FEW032 SCT036 BKN041 04/01 Q1019
  • 201920Z AUTO VRB02KT 2900 BR SCT034 SCT055 04/01 Q1019
  • 201850Z AUTO VRB02KT 3200 BR SCT039 SCT049 BKN055 04/01 Q1019

TAF AMD TAF LSZA
Valide du 20 à 18h jusqu'au 21 à 00h UTC


201808Z 2018/2024 20006KT 3300 BR SCT020 BKN040
ATIS : +41 22 417 40 88



MET'MAP, la Météo Aéronautique d'un coup d'oeil ! - Copyright ORBIFLY Décembre 2007 - Disclaimer

ORBIFLY MET'MAP TEAM :

Programmation & Développement : Alexandra Zaïnal
Sur une idée originale de : Baudouin d'Aumeries
Assistance à la programmation : Marc-Olivier Méhu
Soutien technique & logistique : Manuel Goepfert

Contact : metmap@orbifly.com




SOURCES & CREDITS :

   NOAA